Time;durP1;ratioP1;P1;durP2;ratioP2;P2;SDS_P1;SDS_P2;PMS_P1;PMS_P2;Temp;Humidity;BMP_temperature;BMP_pressure;BME280_temperature;BME280_humidity;BME280_pressure;Samples;Min_cycle;Max_cycle;Signal;HPM_P1;HPM_P2
2021/01/30 00:02:02;;;;;;;7.85;2.55;;;;;;;;;;4841795;29;20122;-78
2021/01/30 00:04:28;;;;;;;4.68;2.10;;;;;;;;;;4840120;29;20422;-77
2021/01/30 00:06:54;;;;;;;6.57;2.45;;;;;;;;;;4846873;29;20080;-76
2021/01/30 00:09:21;;;;;;;5.38;2.00;;;;;;;;;;4842014;29;20056;-77
2021/01/30 00:11:51;;;;;;;3.95;2.53;;;;;;;;;;4851897;29;20388;-76
2021/01/30 00:14:24;;;;;;;3.05;1.58;;;;;;;;;;4847489;29;20062;-76
2021/01/30 00:16:50;;;;;;;3.88;2.10;;;;;;;;;;4848335;29;20522;-75
2021/01/30 00:19:18;;;;;;;3.92;2.08;;;;;;;;;;4844933;29;20050;-75
2021/01/30 00:21:51;;;;;;;4.57;2.10;;;;;;;;;;4847205;29;20061;-75
2021/01/30 00:24:20;;;;;;;3.67;2.03;;;;;;;;;;4857355;29;20049;-77
2021/01/30 00:26:51;;;;;;;4.03;2.20;;;;;;;;;;4847596;29;20090;-75
2021/01/30 00:29:17;;;;;;;6.22;1.73;;;;;;;;;;4850887;29;20514;-75
2021/01/30 00:31:44;;;;;;;4.22;2.15;;;;;;;;;;4847116;29;20418;-75
2021/01/30 00:34:10;;;;;;;5.15;2.53;;;;;;;;;;4850706;29;20064;-76
2021/01/30 00:36:36;;;;;;;3.08;1.60;;;;;;;;;;4850029;29;20054;-76
2021/01/30 00:39:03;;;;;;;6.40;2.20;;;;;;;;;;4841961;29;20053;-76
2021/01/30 00:41:29;;;;;;;3.67;1.88;;;;;;;;;;4851207;29;20423;-75
2021/01/30 00:43:55;;;;;;;4.13;2.08;;;;;;;;;;4853309;29;21990;-75
2021/01/30 00:46:22;;;;;;;4.13;1.88;;;;;;;;;;4857025;29;20052;-75
2021/01/30 00:48:48;;;;;;;3.63;2.08;;;;;;;;;;4850719;29;20058;-74
2021/01/30 00:51:18;;;;;;;3.35;1.70;;;;;;;;;;4853303;29;20065;-75
2021/01/30 00:53:44;;;;;;;;;;;;;;;;;;4856797;29;20109;-75
2021/01/30 00:56:13;;;;;;;4.85;1.60;;;;;;;;;;4857606;29;20294;-76
2021/01/30 00:58:40;;;;;;;4.57;2.08;;;;;;;;;;4856760;29;20068;-74
2021/01/30 01:01:09;;;;;;;3.20;1.50;;;;;;;;;;4850177;29;20056;-73
2021/01/30 01:03:35;;;;;;;4.70;1.85;;;;;;;;;;4854953;29;20458;-74
2021/01/30 01:06:03;;;;;;;4.88;1.63;;;;;;;;;;4853362;29;20050;-74
2021/01/30 01:08:32;;;;;;;5.28;1.55;;;;;;;;;;4847929;29;20568;-73
2021/01/30 01:10:59;;;;;;;3.80;1.45;;;;;;;;;;4856161;29;20057;-73
2021/01/30 01:13:31;;;;;;;3.85;1.50;;;;;;;;;;4850386;29;20053;-74
2021/01/30 01:15:58;;;;;;;3.13;1.20;;;;;;;;;;4852944;29;20054;-74
2021/01/30 01:18:25;;;;;;;3.97;1.30;;;;;;;;;;4845749;29;20050;-74
2021/01/30 01:20:52;;;;;;;2.63;1.52;;;;;;;;;;4855086;29;20535;-76
2021/01/30 01:23:18;;;;;;;3.45;1.40;;;;;;;;;;4847191;29;20141;-75
2021/01/30 01:25:44;;;;;;;2.67;1.63;;;;;;;;;;4853661;29;20045;-76
2021/01/30 01:28:11;;;;;;;3.83;1.52;;;;;;;;;;4851156;29;20185;-76
2021/01/30 01:30:39;;;;;;;4.50;1.52;;;;;;;;;;4859059;29;20133;-76
2021/01/30 01:33:11;;;;;;;3.35;1.65;;;;;;;;;;4855228;29;20472;-76
2021/01/30 01:35:37;;;;;;;3.25;1.27;;;;;;;;;;4861196;29;20479;-77
2021/01/30 01:38:04;;;;;;;3.20;1.85;;;;;;;;;;4854209;29;20065;-76
2021/01/30 01:40:40;;;;;;;4.05;1.40;;;;;;;;;;4857172;29;20053;-76
2021/01/30 01:43:18;;;;;;;2.45;1.40;;;;;;;;;;4848646;29;20054;-75
2021/01/30 01:46:11;;;;;;;3.13;1.52;;;;;;;;;;4858382;29;20049;-75
2021/01/30 01:48:51;;;;;;;2.55;1.33;;;;;;;;;;4835056;29;20077;-76
2021/01/30 01:51:29;;;;;;;2.78;1.20;;;;;;;;;;4852934;29;20057;-77
2021/01/30 01:53:57;;;;;;;2.95;1.15;;;;;;;;;;4853785;29;20106;-76
2021/01/30 01:56:24;;;;;;;2.08;1.23;;;;;;;;;;4856909;29;20065;-76
2021/01/30 01:59:01;;;;;;;2.97;1.00;;;;;;;;;;4846897;29;20056;-76
2021/01/30 02:01:29;;;;;;;2.58;1.42;;;;;;;;;;4848442;29;20089;-75
2021/01/30 02:03:56;;;;;;;3.15;1.73;;;;;;;;;;4849068;29;20045;-76
2021/01/30 02:06:22;;;;;;;2.10;1.10;;;;;;;;;;4855599;29;20542;-76
2021/01/30 02:08:52;;;;;;;1.83;1.00;;;;;;;;;;4848502;29;20478;-76
2021/01/30 02:11:20;;;;;;;2.38;1.33;;;;;;;;;;4854405;29;20053;-76
2021/01/30 02:13:51;;;;;;;1.77;1.23;;;;;;;;;;4849711;29;20057;-75
2021/01/30 02:16:26;;;;;;;2.75;1.38;;;;;;;;;;4859162;29;20064;-76
2021/01/30 02:18:52;;;;;;;4.68;1.15;;;;;;;;;;4856316;29;20071;-76
2021/01/30 02:21:48;;;;;;;3.53;1.48;;;;;;;;;;4850601;29;20414;-76
2021/01/30 02:24:52;;;;;;;2.28;1.20;;;;;;;;;;4852242;29;21245;-76
2021/01/30 02:27:25;;;;;;;1.63;1.10;;;;;;;;;;4850421;29;20088;-76
2021/01/30 02:30:04;;;;;;;2.05;1.27;;;;;;;;;;4858891;29;20068;-77
2021/01/30 02:32:30;;;;;;;2.90;1.10;;;;;;;;;;4854294;29;20053;-77
2021/01/30 02:34:57;;;;;;;2.13;1.08;;;;;;;;;;4850279;29;20054;-77
2021/01/30 02:37:25;;;;;;;2.58;1.40;;;;;;;;;;4858650;29;20076;-77
2021/01/30 02:39:53;;;;;;;3.65;1.00;;;;;;;;;;4854164;29;20171;-76
2021/01/30 02:42:21;;;;;;;2.92;1.13;;;;;;;;;;4850168;29;20054;-76
2021/01/30 02:44:51;;;;;;;2.90;1.23;;;;;;;;;;4849775;29;20132;-77
2021/01/30 02:47:20;;;;;;;3.53;1.00;;;;;;;;;;4849044;29;20053;-77
2021/01/30 02:49:48;;;;;;;2.67;1.00;;;;;;;;;;4849834;29;20529;-77
2021/01/30 02:52:22;;;;;;;3.30;1.25;;;;;;;;;;4852508;29;20365;-77
2021/01/30 02:54:50;;;;;;;2.35;1.20;;;;;;;;;;4849786;29;20073;-77
2021/01/30 02:57:17;;;;;;;4.55;1.63;;;;;;;;;;4848735;29;20046;-77
2021/01/30 02:59:45;;;;;;;3.53;1.13;;;;;;;;;;4849699;29;20053;-76
2021/01/30 03:02:12;;;;;;;2.03;0.95;;;;;;;;;;4853157;29;20563;-76
2021/01/30 03:04:40;;;;;;;1.80;1.15;;;;;;;;;;4851760;29;20106;-76
2021/01/30 03:07:10;;;;;;;1.95;0.93;;;;;;;;;;4853735;29;20129;-77
2021/01/30 03:09:36;;;;;;;;;;;;;;;;;;4851360;29;20053;-77
2021/01/30 03:12:12;;;;;;;1.83;0.73;;;;;;;;;;4853585;29;19938;-74
2021/01/30 03:14:49;;;;;;;2.65;1.00;;;;;;;;;;4851427;29;20469;-76
2021/01/30 03:17:18;;;;;;;1.23;0.60;;;;;;;;;;4851274;29;20114;-75
2021/01/30 03:19:46;;;;;;;4.97;1.30;;;;;;;;;;4846492;29;20106;-76
2021/01/30 03:22:14;;;;;;;3.38;1.42;;;;;;;;;;4853008;29;20049;-76
2021/01/30 03:24:45;;;;;;;1.65;0.88;;;;;;;;;;4851542;29;20134;-76
2021/01/30 03:27:21;;;;;;;2.05;0.88;;;;;;;;;;4848814;29;20499;-75
2021/01/30 03:29:48;;;;;;;2.38;1.13;;;;;;;;;;4851078;29;20651;-75
2021/01/30 03:32:29;;;;;;;2.30;1.45;;;;;;;;;;4842452;29;20060;-76
2021/01/30 03:34:56;;;;;;;2.35;1.08;;;;;;;;;;4847132;29;20057;-75
2021/01/30 03:37:23;;;;;;;3.38;1.02;;;;;;;;;;4848194;29;20052;-75
2021/01/30 03:39:52;;;;;;;1.73;0.88;;;;;;;;;;4855389;29;20050;-76
2021/01/30 03:42:20;;;;;;;1.80;0.95;;;;;;;;;;4848311;29;20057;-76
2021/01/30 03:44:46;;;;;;;2.25;1.10;;;;;;;;;;4844037;29;20060;-76
2021/01/30 03:47:13;;;;;;;2.92;1.10;;;;;;;;;;4834879;29;20073;-76
2021/01/30 03:49:39;;;;;;;2.75;1.20;;;;;;;;;;4848000;29;20057;-76
2021/01/30 03:52:10;;;;;;;3.35;0.90;;;;;;;;;;4846685;29;20050;-75
2021/01/30 03:54:36;;;;;;;2.25;0.90;;;;;;;;;;4845444;29;20057;-76
2021/01/30 03:57:02;;;;;;;2.38;1.20;;;;;;;;;;4845459;29;20045;-75
2021/01/30 03:59:29;;;;;;;4.38;1.15;;;;;;;;;;4847688;29;20118;-75
2021/01/30 04:01:56;;;;;;;1.85;0.90;;;;;;;;;;4852183;29;20076;-75
2021/01/30 04:04:22;;;;;;;3.10;1.30;;;;;;;;;;4851856;29;20072;-75
2021/01/30 04:06:49;;;;;;;1.92;1.02;;;;;;;;;;4852278;29;20144;-76
2021/01/30 04:09:16;;;;;;;2.10;0.88;;;;;;;;;;4852743;29;20547;-76
2021/01/30 04:11:42;;;;;;;2.05;0.75;;;;;;;;;;4848486;29;20060;-76
2021/01/30 04:14:09;;;;;;;1.52;0.82;;;;;;;;;;4847070;29;20046;-76
2021/01/30 04:16:35;;;;;;;3.03;0.95;;;;;;;;;;4854409;29;20407;-74
2021/01/30 04:19:01;;;;;;;2.75;0.73;;;;;;;;;;4852889;29;20053;-75
2021/01/30 04:21:30;;;;;;;3.35;0.88;;;;;;;;;;4852694;29;20060;-74
2021/01/30 04:23:57;;;;;;;2.95;1.23;;;;;;;;;;4844612;29;20046;-73
2021/01/30 04:26:26;;;;;;;1.10;0.70;;;;;;;;;;4853033;29;20053;-74
2021/01/30 04:28:55;;;;;;;5.93;1.15;;;;;;;;;;4846405;29;20049;-74
2021/01/30 04:31:24;;;;;;;2.00;1.10;;;;;;;;;;4856946;29;20053;-74
2021/01/30 04:33:50;;;;;;;2.97;1.00;;;;;;;;;;4851969;29;20049;-73
2021/01/30 04:36:20;;;;;;;1.95;1.08;;;;;;;;;;4854262;29;20045;-75
2021/01/30 04:38:46;;;;;;;2.05;0.80;;;;;;;;;;4848228;29;20048;-76
2021/01/30 04:41:21;;;;;;;2.03;0.75;;;;;;;;;;4857262;29;20084;-76
2021/01/30 04:43:54;;;;;;;1.42;0.75;;;;;;;;;;4851463;29;20403;-76
2021/01/30 04:46:24;;;;;;;2.53;1.20;;;;;;;;;;4852584;29;20061;-74
2021/01/30 04:49:02;;;;;;;1.27;0.80;;;;;;;;;;4853689;29;20049;-75
2021/01/30 04:51:44;;;;;;;1.88;0.77;;;;;;;;;;4853275;29;20057;-74
2021/01/30 04:54:28;;;;;;;1.45;0.68;;;;;;;;;;4854478;29;20158;-75
2021/01/30 04:56:58;;;;;;;2.67;1.00;;;;;;;;;;4850313;29;20045;-76
2021/01/30 04:59:33;;;;;;;2.25;1.13;;;;;;;;;;4860703;29;20476;-75
2021/01/30 05:02:03;;;;;;;2.97;0.93;;;;;;;;;;4855333;29;20045;-75
2021/01/30 05:04:31;;;;;;;5.45;1.10;;;;;;;;;;4849230;29;20109;-75
2021/01/30 05:07:17;;;;;;;3.55;0.82;;;;;;;;;;4852937;29;20053;-74
2021/01/30 05:09:58;;;;;;;2.08;1.00;;;;;;;;;;4852503;29;20057;-75
2021/01/30 05:12:39;;;;;;;2.95;1.20;;;;;;;;;;4852252;29;20063;-75
2021/01/30 05:15:14;;;;;;;3.38;0.93;;;;;;;;;;4852931;29;20057;-75
2021/01/30 05:18:01;;;;;;;1.75;0.75;;;;;;;;;;4847656;29;20466;-75
2021/01/30 05:20:35;;;;;;;1.67;1.08;;;;;;;;;;4854760;29;20543;-77
2021/01/30 05:23:04;;;;;;;2.00;0.98;;;;;;;;;;4851703;29;20080;-74
2021/01/30 05:25:30;;;;;;;3.88;1.00;;;;;;;;;;4852816;29;20045;-75
2021/01/30 05:28:02;;;;;;;4.00;0.93;;;;;;;;;;4849266;29;20054;-74
2021/01/30 05:30:34;;;;;;;2.47;0.60;;;;;;;;;;4851288;29;20045;-73
2021/01/30 05:33:07;;;;;;;2.63;1.05;;;;;;;;;;4856988;29;20586;-73
2021/01/30 05:35:36;;;;;;;1.58;0.80;;;;;;;;;;4852283;29;20045;-73
2021/01/30 05:38:10;;;;;;;2.15;0.82;;;;;;;;;;4858937;29;20060;-74
2021/01/30 05:41:07;;;;;;;2.35;0.80;;;;;;;;;;4851690;29;20468;-73
2021/01/30 05:43:33;;;;;;;4.40;1.88;;;;;;;;;;4834842;29;20046;-73
2021/01/30 05:46:00;;;;;;;2.92;1.08;;;;;;;;;;4851518;29;20593;-73
2021/01/30 05:48:42;;;;;;;2.67;1.00;;;;;;;;;;4846858;29;20050;-73
2021/01/30 05:51:15;;;;;;;2.03;0.90;;;;;;;;;;4854119;29;20049;-73
2021/01/30 05:53:42;;;;;;;2.38;1.17;;;;;;;;;;4851188;29;20064;-73
2021/01/30 05:56:11;;;;;;;2.33;1.25;;;;;;;;;;4852768;29;20053;-73
2021/01/30 05:58:42;;;;;;;2.15;0.82;;;;;;;;;;4847351;29;20049;-73
2021/01/30 06:01:31;;;;;;;3.45;1.27;;;;;;;;;;4848461;29;20045;-71
2021/01/30 06:03:58;;;;;;;3.22;0.90;;;;;;;;;;4843619;29;20057;-73
2021/01/30 06:06:26;;;;;;;5.10;1.10;;;;;;;;;;4848124;29;20154;-72
2021/01/30 06:09:00;;;;;;;2.53;1.15;;;;;;;;;;4846283;29;20389;-73
2021/01/30 06:11:26;;;;;;;3.92;1.25;;;;;;;;;;4848764;29;20414;-72
2021/01/30 06:13:54;;;;;;;2.63;1.05;;;;;;;;;;4854635;29;20414;-73
2021/01/30 06:16:39;;;;;;;3.65;1.17;;;;;;;;;;4845946;29;20151;-74
2021/01/30 06:19:24;;;;;;;2.85;1.88;;;;;;;;;;4850711;29;20115;-74
2021/01/30 06:22:26;;;;;;;5.68;1.38;;;;;;;;;;4843369;29;20389;-73
2021/01/30 06:24:52;;;;;;;2.15;1.02;;;;;;;;;;4801135;29;20493;-73
2021/01/30 06:27:18;;;;;;;4.53;1.25;;;;;;;;;;4838330;29;20091;-74
2021/01/30 06:29:48;;;;;;;2.95;1.48;;;;;;;;;;4851519;29;20053;-74
2021/01/30 06:32:29;;;;;;;3.28;1.55;;;;;;;;;;4852384;29;20136;-73
2021/01/30 06:35:25;;;;;;;3.83;1.15;;;;;;;;;;4852921;29;20049;-74
2021/01/30 06:37:52;;;;;;;4.40;1.20;;;;;;;;;;4831632;29;20050;-74
2021/01/30 06:40:18;;;;;;;3.65;1.25;;;;;;;;;;4847745;29;20392;-74
2021/01/30 06:42:48;;;;;;;2.83;1.00;;;;;;;;;;4843707;29;20539;-75
2021/01/30 06:45:40;;;;;;;2.50;1.00;;;;;;;;;;4851510;29;20416;-75
2021/01/30 06:48:22;;;;;;;2.55;1.20;;;;;;;;;;4848236;29;20125;-74
2021/01/30 06:50:48;;;;;;;4.53;1.10;;;;;;;;;;4849486;29;20064;-76
2021/01/30 06:53:31;;;;;;;4.97;1.45;;;;;;;;;;4851241;29;20138;-74
2021/01/30 06:56:11;;;;;;;2.83;0.95;;;;;;;;;;4847977;29;20128;-76
2021/01/30 06:58:41;;;;;;;4.03;1.25;;;;;;;;;;4846533;29;20057;-75
2021/01/30 07:01:12;;;;;;;3.92;1.55;;;;;;;;;;4847275;29;20061;-74
2021/01/30 07:03:57;;;;;;;5.63;1.40;;;;;;;;;;4850523;29;20526;-78
2021/01/30 07:06:53;;;;;;;4.32;1.67;;;;;;;;;;4846729;29;20496;-76
2021/01/30 07:09:28;;;;;;;4.28;1.27;;;;;;;;;;4804014;29;20055;-75
2021/01/30 07:12:08;;;;;;;3.25;1.40;;;;;;;;;;4850291;29;20120;-77
2021/01/30 07:14:34;;;;;;;;;;;;;;;;;;4851447;29;20053;-75
2021/01/30 07:17:03;;;;;;;6.28;1.30;;;;;;;;;;4854307;29;20048;-76
2021/01/30 07:19:35;;;;;;;5.65;1.38;;;;;;;;;;4854979;29;20060;-76
2021/01/30 07:22:04;;;;;;;4.70;1.35;;;;;;;;;;4849820;29;20053;-76
2021/01/30 07:24:30;;;;;;;2.87;1.10;;;;;;;;;;4849925;29;20069;-72
2021/01/30 07:27:05;;;;;;;4.75;1.48;;;;;;;;;;4850562;29;20668;-78
2021/01/30 07:29:35;;;;;;;5.72;1.88;;;;;;;;;;4848170;29;20057;-72
2021/01/30 07:32:05;;;;;;;3.65;1.70;;;;;;;;;;4850408;29;20426;-71
2021/01/30 07:34:37;;;;;;;8.02;1.88;;;;;;;;;;4850939;29;20054;-72
2021/01/30 07:37:14;;;;;;;11.38;2.95;;;;;;;;;;4850923;29;20045;-73
2021/01/30 07:40:00;;;;;;;3.25;1.23;;;;;;;;;;4850481;29;20575;-72
2021/01/30 07:42:35;;;;;;;4.63;1.52;;;;;;;;;;4844782;29;20053;-72
2021/01/30 07:45:10;;;;;;;3.95;1.70;;;;;;;;;;4849289;29;20060;-80
2021/01/30 07:47:39;;;;;;;5.60;2.00;;;;;;;;;;4847328;29;20057;-70
2021/01/30 07:50:07;;;;;;;5.93;2.83;;;;;;;;;;4851602;29;20083;-71
2021/01/30 07:52:40;;;;;;;8.60;2.08;;;;;;;;;;4854260;29;20046;-72
2021/01/30 07:55:08;;;;;;;5.97;2.63;;;;;;;;;;4850907;29;20064;-73
2021/01/30 07:57:34;;;;;;;7.15;2.95;;;;;;;;;;4849807;29;20053;-73
2021/01/30 08:00:03;;;;;;;8.82;2.67;;;;;;;;;;4851900;29;20049;-73
2021/01/30 08:02:48;;;;;;;7.57;2.60;;;;;;;;;;4853758;29;20053;-72
2021/01/30 08:05:33;;;;;;;5.05;2.53;;;;;;;;;;4848694;29;20156;-73
2021/01/30 08:08:17;;;;;;;6.88;2.25;;;;;;;;;;4848215;29;20060;-72
2021/01/30 08:10:47;;;;;;;4.32;1.65;;;;;;;;;;4846937;29;20064;-70
2021/01/30 08:13:39;;;;;;;6.15;1.60;;;;;;;;;;4848843;29;20046;-71
2021/01/30 08:16:07;;;;;;;5.00;1.70;;;;;;;;;;4847188;29;20050;-71
2021/01/30 08:18:41;;;;;;;4.93;1.80;;;;;;;;;;4847241;29;20073;-71
2021/01/30 08:21:10;;;;;;;7.60;2.90;;;;;;;;;;4847580;29;20065;-71
2021/01/30 08:23:55;;;;;;;3.50;1.92;;;;;;;;;;4847216;29;20401;-71
2021/01/30 08:26:27;;;;;;;8.80;1.95;;;;;;;;;;4844104;29;20448;-70
2021/01/30 08:28:54;;;;;;;3.60;1.92;;;;;;;;;;4845046;29;20050;-70
2021/01/30 08:31:33;;;;;;;8.18;2.08;;;;;;;;;;4845798;29;20054;-70
2021/01/30 08:34:01;;;;;;;7.97;2.50;;;;;;;;;;4846083;29;20053;-71
2021/01/30 08:36:36;;;;;;;6.45;1.70;;;;;;;;;;4847480;29;20081;-70
2021/01/30 08:39:21;;;;;;;12.52;2.13;;;;;;;;;;4849201;29;20167;-71
2021/01/30 08:41:52;;;;;;;3.72;1.58;;;;;;;;;;4846872;29;20046;-70
2021/01/30 08:44:37;;;;;;;4.60;1.48;;;;;;;;;;4846667;29;20049;-70
2021/01/30 08:47:04;;;;;;;4.28;2.38;;;;;;;;;;4845310;29;20056;-70
2021/01/30 08:49:34;;;;;;;6.88;1.98;;;;;;;;;;4849997;29;20053;-71
2021/01/30 08:52:12;;;;;;;7.63;1.92;;;;;;;;;;4848013;29;20053;-70
2021/01/30 08:54:39;;;;;;;4.13;1.77;;;;;;;;;;4848105;29;20054;-71
2021/01/30 08:57:24;;;;;;;4.68;1.52;;;;;;;;;;4847717;29;20056;-71
2021/01/30 08:59:53;;;;;;;5.35;1.70;;;;;;;;;;4847993;29;20049;-71
2021/01/30 09:02:29;;;;;;;6.90;1.50;;;;;;;;;;4847966;29;20068;-71
2021/01/30 09:05:07;;;;;;;6.22;2.33;;;;;;;;;;4852214;29;20427;-71
2021/01/30 09:07:44;;;;;;;5.10;1.83;;;;;;;;;;4848449;29;20053;-71
2021/01/30 09:10:16;;;;;;;5.03;2.28;;;;;;;;;;4835084;29;20060;-71
2021/01/30 09:13:08;;;;;;;6.85;2.10;;;;;;;;;;4846859;29;20053;-71
2021/01/30 09:15:44;;;;;;;5.65;1.95;;;;;;;;;;4815099;29;20052;-71
2021/01/30 09:18:22;;;;;;;6.78;2.25;;;;;;;;;;4855130;29;20083;-70
2021/01/30 09:20:48;;;;;;;5.03;1.80;;;;;;;;;;4862334;29;20136;-71
2021/01/30 09:23:25;;;;;;;4.47;1.67;;;;;;;;;;4857285;29;20057;-70
2021/01/30 09:25:54;;;;;;;5.28;1.58;;;;;;;;;;4850697;29;20061;-72
2021/01/30 09:28:26;;;;;;;4.70;2.25;;;;;;;;;;4850903;29;20197;-71
2021/01/30 09:30:55;;;;;;;4.22;1.48;;;;;;;;;;4851825;29;20056;-73
2021/01/30 09:33:32;;;;;;;5.03;1.67;;;;;;;;;;4858731;29;20136;-74
2021/01/30 09:36:09;;;;;;;4.50;1.77;;;;;;;;;;4853855;29;20053;-73
2021/01/30 09:38:38;;;;;;;5.45;1.73;;;;;;;;;;4849983;29;20141;-73
2021/01/30 09:41:05;;;;;;;4.65;1.40;;;;;;;;;;4848584;29;20420;-73
2021/01/30 09:43:31;;;;;;;4.65;1.98;;;;;;;;;;4853704;29;20093;-73
2021/01/30 09:45:58;;;;;;;6.10;1.85;;;;;;;;;;4855466;29;20079;-74
2021/01/30 09:48:24;;;;;;;7.65;1.75;;;;;;;;;;4854328;29;20132;-77
2021/01/30 09:50:52;;;;;;;8.13;2.25;;;;;;;;;;4841019;29;20080;-72
2021/01/30 09:53:32;;;;;;;6.70;2.20;;;;;;;;;;4857910;29;20052;-72
2021/01/30 09:56:05;;;;;;;6.18;2.28;;;;;;;;;;4851801;29;20062;-69
2021/01/30 09:58:32;;;;;;;5.47;1.33;;;;;;;;;;4846996;29;20495;-70
2021/01/30 10:01:02;;;;;;;7.25;1.90;;;;;;;;;;4852193;29;20061;-71
2021/01/30 10:03:36;;;;;;;5.63;2.00;;;;;;;;;;4852795;29;20050;-71
2021/01/30 10:06:24;;;;;;;6.10;1.98;;;;;;;;;;4846746;29;20136;-71
2021/01/30 10:08:52;;;;;;;6.97;2.08;;;;;;;;;;4845774;29;20054;-73
2021/01/30 10:11:20;;;;;;;9.95;3.17;;;;;;;;;;4847992;29;20060;-71
2021/01/30 10:13:56;;;;;;;7.88;1.77;;;;;;;;;;4846630;29;20049;-71
2021/01/30 10:16:24;;;;;;;10.40;2.22;;;;;;;;;;4848077;29;20056;-72
2021/01/30 10:18:56;;;;;;;4.78;1.50;;;;;;;;;;4854290;29;20427;-73
2021/01/30 10:21:32;;;;;;;8.70;3.20;;;;;;;;;;4852655;29;20048;-70
2021/01/30 10:24:08;;;;;;;6.32;1.90;;;;;;;;;;4847726;29;20057;-71
2021/01/30 10:26:40;;;;;;;9.73;1.88;;;;;;;;;;4852757;29;20373;-72
2021/01/30 10:29:09;;;;;;;4.97;2.08;;;;;;;;;;4849202;29;20668;-72
2021/01/30 10:31:52;;;;;;;4.38;1.80;;;;;;;;;;4852197;29;20049;-73
2021/01/30 10:34:27;;;;;;;5.32;1.77;;;;;;;;;;4836677;29;20046;-72
2021/01/30 10:36:56;;;;;;;11.27;2.63;;;;;;;;;;4850430;29;20054;-72
2021/01/30 10:39:23;;;;;;;6.28;2.42;;;;;;;;;;4849089;29;20661;-72
2021/01/30 10:41:52;;;;;;;8.38;1.70;;;;;;;;;;4829538;29;20746;-72
2021/01/30 10:44:21;;;;;;;5.25;1.85;;;;;;;;;;4847508;29;20053;-73
2021/01/30 10:46:47;;;;;;;4.60;1.37;;;;;;;;;;4850954;29;20053;-72
2021/01/30 10:49:22;;;;;;;3.75;1.52;;;;;;;;;;4839290;29;20300;-74
2021/01/30 10:51:48;;;;;;;4.90;1.58;;;;;;;;;;4850831;29;20489;-72
2021/01/30 10:54:17;;;;;;;7.38;2.33;;;;;;;;;;4851792;29;20049;-73
2021/01/30 10:56:59;;;;;;;4.35;2.15;;;;;;;;;;4845189;29;20053;-74
2021/01/30 10:59:25;;;;;;;5.60;1.65;;;;;;;;;;4849308;29;20053;-73
2021/01/30 11:01:53;;;;;;;6.95;2.75;;;;;;;;;;4846725;29;20137;-72
2021/01/30 11:04:26;;;;;;;4.18;1.67;;;;;;;;;;4847494;29;20050;-72
2021/01/30 11:06:59;;;;;;;4.25;1.80;;;;;;;;;;4846028;29;20057;-71
2021/01/30 11:09:31;;;;;;;4.88;1.95;;;;;;;;;;4849964;29;20136;-72
2021/01/30 11:12:09;;;;;;;4.82;1.48;;;;;;;;;;4843449;29;20106;-71
2021/01/30 11:14:35;;;;;;;5.68;1.85;;;;;;;;;;4846408;29;20645;-72
2021/01/30 11:17:02;;;;;;;6.20;2.13;;;;;;;;;;4851676;29;20053;-73
2021/01/30 11:19:32;;;;;;;4.35;1.95;;;;;;;;;;4849930;29;20069;-73
2021/01/30 11:22:23;;;;;;;10.68;1.90;;;;;;;;;;4846561;29;20481;-72
2021/01/30 11:24:49;;;;;;;7.40;2.53;;;;;;;;;;4850778;29;20153;-73
2021/01/30 11:27:40;;;;;;;17.27;3.08;;;;;;;;;;4848869;29;20124;-73
2021/01/30 11:30:20;;;;;;;11.00;3.58;;;;;;;;;;4853894;29;20468;-73
2021/01/30 11:33:05;;;;;;;10.27;3.63;;;;;;;;;;4850695;29;20061;-73
2021/01/30 11:35:39;;;;;;;11.02;5.32;;;;;;;;;;4841533;29;20333;-74
2021/01/30 11:38:09;;;;;;;10.25;4.50;;;;;;;;;;4852632;29;20048;-74
2021/01/30 11:40:35;;;;;;;;;;;;;;;;;;4851151;29;20045;-74
2021/01/30 11:43:02;;;;;;;11.50;5.80;;;;;;;;;;4850746;29;20374;-74
2021/01/30 11:45:28;;;;;;;10.40;5.40;;;;;;;;;;4848171;29;20071;-74
2021/01/30 11:47:56;;;;;;;9.90;5.68;;;;;;;;;;4850478;29;20057;-74
2021/01/30 11:50:23;;;;;;;10.70;6.05;;;;;;;;;;4857022;29;20053;-74
2021/01/30 11:52:49;;;;;;;7.93;4.75;;;;;;;;;;4848996;29;20053;-74
2021/01/30 11:55:20;;;;;;;11.80;7.28;;;;;;;;;;4850885;29;20054;-73
2021/01/30 11:57:46;;;;;;;13.20;6.40;;;;;;;;;;4836688;29;20067;-72
2021/01/30 12:00:16;;;;;;;12.23;6.93;;;;;;;;;;4848401;29;20499;-73
2021/01/30 12:02:43;;;;;;;12.77;5.80;;;;;;;;;;4848683;29;20062;-73
2021/01/30 12:05:12;;;;;;;9.77;5.28;;;;;;;;;;4853056;29;20484;-74
2021/01/30 12:07:39;;;;;;;9.65;4.43;;;;;;;;;;4848710;29;20056;-73
2021/01/30 12:10:05;;;;;;;13.10;6.35;;;;;;;;;;4847065;29;20057;-74
2021/01/30 12:12:33;;;;;;;13.07;6.05;;;;;;;;;;4849024;29;20422;-75
2021/01/30 12:15:02;;;;;;;9.48;5.75;;;;;;;;;;4847407;29;20101;-75
2021/01/30 12:17:35;;;;;;;11.27;5.18;;;;;;;;;;4850577;29;20550;-74
2021/01/30 12:20:04;;;;;;;10.25;5.55;;;;;;;;;;4847240;29;20499;-74
2021/01/30 12:22:30;;;;;;;10.35;6.53;;;;;;;;;;4854654;29;20176;-74
2021/01/30 12:24:58;;;;;;;11.38;7.10;;;;;;;;;;4849008;29;20089;-74
2021/01/30 12:27:25;;;;;;;8.90;5.05;;;;;;;;;;4852221;29;20155;-76
2021/01/30 12:29:54;;;;;;;9.85;5.05;;;;;;;;;;4850707;29;20053;-75
2021/01/30 12:32:24;;;;;;;7.70;4.88;;;;;;;;;;4854083;29;20441;-75
2021/01/30 12:34:50;;;;;;;8.93;5.65;;;;;;;;;;4846906;29;20451;-75
2021/01/30 12:37:19;;;;;;;11.82;4.93;;;;;;;;;;4845360;29;20081;-74
2021/01/30 12:39:46;;;;;;;7.33;4.43;;;;;;;;;;4850974;29;20041;-75
2021/01/30 12:42:12;;;;;;;8.65;4.80;;;;;;;;;;4844438;29;20068;-74
2021/01/30 12:44:40;;;;;;;7.32;4.35;;;;;;;;;;4851033;29;20129;-76
2021/01/30 12:47:20;;;;;;;9.32;4.50;;;;;;;;;;4833004;29;20077;-76
2021/01/30 12:50:04;;;;;;;10.98;4.97;;;;;;;;;;4849204;29;20046;-76
2021/01/30 12:52:30;;;;;;;13.02;3.97;;;;;;;;;;4849364;29;20064;-76
2021/01/30 12:54:56;;;;;;;6.43;3.55;;;;;;;;;;4848539;29;20140;-74
2021/01/30 12:57:24;;;;;;;5.03;2.70;;;;;;;;;;4848689;29;20049;-75
2021/01/30 12:59:51;;;;;;;4.78;3.15;;;;;;;;;;4855718;29;20503;-74
2021/01/30 13:02:19;;;;;;;6.07;3.22;;;;;;;;;;4849552;29;20061;-73
2021/01/30 13:04:50;;;;;;;5.47;2.28;;;;;;;;;;4849253;29;20390;-75
2021/01/30 13:07:17;;;;;;;8.77;3.15;;;;;;;;;;4846060;29;20045;-73
2021/01/30 13:09:43;;;;;;;5.38;3.00;;;;;;;;;;4847127;29;20176;-73
2021/01/30 13:12:10;;;;;;;8.00;3.15;;;;;;;;;;4848942;29;20054;-76
2021/01/30 13:14:42;;;;;;;7.93;3.35;;;;;;;;;;4850228;29;20058;-76
2021/01/30 13:17:11;;;;;;;6.72;3.22;;;;;;;;;;4851925;29;20527;-75
2021/01/30 13:19:39;;;;;;;10.55;3.22;;;;;;;;;;4849241;29;20069;-75
2021/01/30 13:22:06;;;;;;;9.32;3.55;;;;;;;;;;4851528;29;20058;-75
2021/01/30 13:24:36;;;;;;;9.38;2.63;;;;;;;;;;4847599;29;20094;-75
2021/01/30 13:27:05;;;;;;;6.05;2.53;;;;;;;;;;4846021;29;20042;-74
2021/01/30 13:29:34;;;;;;;8.48;2.90;;;;;;;;;;4849229;29;20060;-75
2021/01/30 13:32:01;;;;;;;10.90;3.13;;;;;;;;;;4845317;29;20074;-75
2021/01/30 13:34:28;;;;;;;7.45;3.05;;;;;;;;;;4851323;29;20045;-75
2021/01/30 13:36:54;;;;;;;5.72;2.35;;;;;;;;;;4849601;29;20054;-76
2021/01/30 13:39:21;;;;;;;6.10;2.35;;;;;;;;;;4856626;29;20060;-75
2021/01/30 13:41:47;;;;;;;8.32;2.58;;;;;;;;;;4854311;29;20050;-75
2021/01/30 13:44:17;;;;;;;8.43;2.25;;;;;;;;;;4851303;29;22151;-75
2021/01/30 13:46:43;;;;;;;7.00;3.28;;;;;;;;;;4850806;29;20467;-75
2021/01/30 13:49:09;;;;;;;3.85;1.92;;;;;;;;;;4849896;29;20503;-75
2021/01/30 13:51:35;;;;;;;6.80;2.47;;;;;;;;;;4853549;29;20054;-76
2021/01/30 13:54:02;;;;;;;5.30;2.15;;;;;;;;;;4847881;29;20056;-75
2021/01/30 13:56:30;;;;;;;8.93;3.60;;;;;;;;;;4850022;29;20060;-76
2021/01/30 13:58:56;;;;;;;4.90;2.60;;;;;;;;;;4852107;29;20045;-75
2021/01/30 14:01:25;;;;;;;5.93;3.00;;;;;;;;;;4852481;29;20415;-75
2021/01/30 14:03:52;;;;;;;5.47;2.42;;;;;;;;;;4851047;29;20482;-75
2021/01/30 14:06:19;;;;;;;4.53;2.10;;;;;;;;;;4850604;29;20082;-75
2021/01/30 14:08:48;;;;;;;7.72;2.67;;;;;;;;;;4845431;29;21943;-74
2021/01/30 14:11:18;;;;;;;10.43;2.95;;;;;;;;;;4848477;29;20120;-74
2021/01/30 14:13:44;;;;;;;7.45;2.53;;;;;;;;;;4847398;29;20058;-76
2021/01/30 14:16:13;;;;;;;7.13;3.17;;;;;;;;;;4846780;29;20050;-73
2021/01/30 14:18:40;;;;;;;7.82;2.53;;;;;;;;;;4844856;29;20475;-72
2021/01/30 14:21:06;;;;;;;5.55;2.17;;;;;;;;;;4846923;29;20140;-73
2021/01/30 14:23:32;;;;;;;6.65;1.92;;;;;;;;;;4849881;29;20049;-72
2021/01/30 14:25:58;;;;;;;2.85;1.52;;;;;;;;;;4849420;29;20045;-75
2021/01/30 14:28:26;;;;;;;6.55;2.60;;;;;;;;;;4855681;29;20083;-72
2021/01/30 14:30:52;;;;;;;6.50;2.45;;;;;;;;;;4850993;29;20136;-74
2021/01/30 14:33:19;;;;;;;9.38;2.85;;;;;;;;;;4843550;29;20396;-72
2021/01/30 14:35:45;;;;;;;4.90;2.30;;;;;;;;;;4854375;29;20064;-73
2021/01/30 14:38:12;;;;;;;7.93;2.65;;;;;;;;;;4851815;29;20057;-73
2021/01/30 14:40:41;;;;;;;9.75;2.88;;;;;;;;;;4850911;29;20050;-73
2021/01/30 14:43:11;;;;;;;10.23;2.53;;;;;;;;;;4853136;29;20499;-73
2021/01/30 14:45:38;;;;;;;5.47;2.22;;;;;;;;;;4844753;29;20464;-73
2021/01/30 14:48:06;;;;;;;4.55;2.47;;;;;;;;;;4851277;29;20045;-73
2021/01/30 14:50:36;;;;;;;9.85;3.00;;;;;;;;;;4848818;29;20092;-75
2021/01/30 14:53:05;;;;;;;7.60;2.55;;;;;;;;;;4849496;29;20964;-72
2021/01/30 14:55:31;;;;;;;5.97;2.35;;;;;;;;;;4848905;29;20057;-72
2021/01/30 14:57:58;;;;;;;4.93;2.10;;;;;;;;;;4845492;29;20053;-71
2021/01/30 15:00:26;;;;;;;11.07;3.05;;;;;;;;;;4849755;29;20054;-72
2021/01/30 15:02:52;;;;;;;5.55;2.50;;;;;;;;;;4852568;29;20058;-72
2021/01/30 15:05:19;;;;;;;10.00;2.65;;;;;;;;;;4849711;29;20057;-74
2021/01/30 15:07:48;;;;;;;9.43;3.15;;;;;;;;;;4856506;29;20057;-73